sensor_id;sensor_type;location;lat;lon;timestamp;temperature;humidity
44647;DHT22;56315;-33.902;151.160;2022-12-18T00:10:32;20.30;99.90
44647;DHT22;56315;-33.902;151.160;2022-12-18T00:12:58;20.10;99.90
44647;DHT22;56315;-33.902;151.160;2022-12-18T00:15:25;20.10;99.90
44647;DHT22;56315;-33.902;151.160;2022-12-18T00:17:52;20.20;99.90
44647;DHT22;56315;-33.902;151.160;2022-12-18T00:20:18;20.10;99.90
44647;DHT22;56315;-33.902;151.160;2022-12-18T00:25:54;19.90;99.90
44647;DHT22;56315;-33.902;151.160;2022-12-18T00:28:21;20.10;99.90
44647;DHT22;56315;-33.902;151.160;2022-12-18T00:43:09;22.00;99.90
44647;DHT22;56315;-33.902;151.160;2022-12-18T00:48:59;21.70;99.90
44647;DHT22;56315;-33.902;151.160;2022-12-18T00:57:32;22.10;99.90
44647;DHT22;56315;-33.902;151.160;2022-12-18T01:12:13;19.60;99.90
44647;DHT22;56315;-33.902;151.160;2022-12-18T01:14:39;19.50;99.90
44647;DHT22;56315;-33.902;151.160;2022-12-18T01:17:06;19.20;99.90
44647;DHT22;56315;-33.902;151.160;2022-12-18T01:19:33;19.10;99.90
44647;DHT22;56315;-33.902;151.160;2022-12-18T01:21:59;19.00;99.90
44647;DHT22;56315;-33.902;151.160;2022-12-18T01:24:26;19.10;99.90
44647;DHT22;56315;-33.902;151.160;2022-12-18T01:26:52;18.90;99.90
44647;DHT22;56315;-33.902;151.160;2022-12-18T01:29:19;18.60;99.90
44647;DHT22;56315;-33.902;151.160;2022-12-18T01:31:46;18.60;99.90
44647;DHT22;56315;-33.902;151.160;2022-12-18T01:34:12;18.70;99.90
44647;DHT22;56315;-33.902;151.160;2022-12-18T01:36:39;19.00;99.90
44647;DHT22;56315;-33.902;151.160;2022-12-18T01:39:13;19.30;99.90
44647;DHT22;56315;-33.902;151.160;2022-12-18T01:41:40;19.50;99.90
44647;DHT22;56315;-33.902;151.160;2022-12-18T01:47:09;20.30;99.90
44647;DHT22;56315;-33.902;151.160;2022-12-18T01:49:39;20.40;99.90
44647;DHT22;56315;-33.902;151.160;2022-12-18T01:52:06;20.30;99.90
44647;DHT22;56315;-33.902;151.160;2022-12-18T01:54:33;20.20;99.90
44647;DHT22;56315;-33.902;151.160;2022-12-18T01:56:59;20.00;99.90
44647;DHT22;56315;-33.902;151.160;2022-12-18T01:59:26;19.80;99.90
44647;DHT22;56315;-33.902;151.160;2022-12-18T02:01:53;19.40;99.90
44647;DHT22;56315;-33.902;151.160;2022-12-18T02:06:47;19.00;99.90
44647;DHT22;56315;-33.902;151.160;2022-12-18T02:09:20;19.00;99.90
44647;DHT22;56315;-33.902;151.160;2022-12-18T02:11:53;19.00;99.90
44647;DHT22;56315;-33.902;151.160;2022-12-18T02:16:52;19.10;99.90
44647;DHT22;56315;-33.902;151.160;2022-12-18T02:19:22;19.30;99.90
44647;DHT22;56315;-33.902;151.160;2022-12-18T02:24:40;19.90;99.90
44647;DHT22;56315;-33.902;151.160;2022-12-18T02:27:09;20.20;99.90
44647;DHT22;56315;-33.902;151.160;2022-12-18T02:32:04;20.40;99.90
44647;DHT22;56315;-33.902;151.160;2022-12-18T02:34:33;20.60;99.90
44647;DHT22;56315;-33.902;151.160;2022-12-18T02:37:00;20.90;99.90
44647;DHT22;56315;-33.902;151.160;2022-12-18T02:39:28;21.10;99.90
44647;DHT22;56315;-33.902;151.160;2022-12-18T02:41:56;21.30;99.90
44647;DHT22;56315;-33.902;151.160;2022-12-18T02:44:23;21.20;99.90
44647;DHT22;56315;-33.902;151.160;2022-12-18T02:46:51;21.50;99.90
44647;DHT22;56315;-33.902;151.160;2022-12-18T02:49:40;21.60;99.90
44647;DHT22;56315;-33.902;151.160;2022-12-18T02:57:43;22.20;99.90
44647;DHT22;56315;-33.902;151.160;2022-12-18T03:00:14;22.30;99.90
44647;DHT22;56315;-33.902;151.160;2022-12-18T03:02:56;22.40;99.90
44647;DHT22;56315;-33.902;151.160;2022-12-18T03:05:36;22.20;99.90
44647;DHT22;56315;-33.902;151.160;2022-12-18T03:08:10;22.20;99.90
44647;DHT22;56315;-33.902;151.160;2022-12-18T03:10:39;22.20;99.90
44647;DHT22;56315;-33.902;151.160;2022-12-18T03:13:14;22.40;99.90
44647;DHT22;56315;-33.902;151.160;2022-12-18T03:15:47;22.20;99.90
44647;DHT22;56315;-33.902;151.160;2022-12-18T03:19:01;22.00;99.90
44647;DHT22;56315;-33.902;151.160;2022-12-18T03:21:02;21.70;99.90
44647;DHT22;56315;-33.902;151.160;2022-12-18T03:23:32;21.50;99.90
44647;DHT22;56315;-33.902;151.160;2022-12-18T03:26:02;21.40;99.90
44647;DHT22;56315;-33.902;151.160;2022-12-18T03:28:30;21.30;99.90
44647;DHT22;56315;-33.902;151.160;2022-12-18T03:30:58;21.40;99.90
44647;DHT22;56315;-33.902;151.160;2022-12-18T03:33:27;21.60;99.90
44647;DHT22;56315;-33.902;151.160;2022-12-18T03:35:56;21.70;99.90
44647;DHT22;56315;-33.902;151.160;2022-12-18T03:38:22;21.80;99.90
44647;DHT22;56315;-33.902;151.160;2022-12-18T03:43:35;21.70;99.90
44647;DHT22;56315;-33.902;151.160;2022-12-18T03:46:07;21.80;99.90
44647;DHT22;56315;-33.902;151.160;2022-12-18T03:48:48;21.90;99.90
44647;DHT22;56315;-33.902;151.160;2022-12-18T03:51:28;21.90;99.90
44647;DHT22;56315;-33.902;151.160;2022-12-18T03:53:59;21.90;99.90
44647;DHT22;56315;-33.902;151.160;2022-12-18T03:56:31;22.00;99.90
44647;DHT22;56315;-33.902;151.160;2022-12-18T03:58:59;21.90;99.90
44647;DHT22;56315;-33.902;151.160;2022-12-18T04:01:36;21.90;99.90
44647;DHT22;56315;-33.902;151.160;2022-12-18T04:04:04;21.90;99.90
44647;DHT22;56315;-33.902;151.160;2022-12-18T04:06:31;21.90;99.90
44647;DHT22;56315;-33.902;151.160;2022-12-18T04:08:58;21.90;99.90
44647;DHT22;56315;-33.902;151.160;2022-12-18T04:11:25;21.90;99.90
44647;DHT22;56315;-33.902;151.160;2022-12-18T04:13:55;21.90;99.90
44647;DHT22;56315;-33.902;151.160;2022-12-18T04:16:23;22.00;99.90
44647;DHT22;56315;-33.902;151.160;2022-12-18T04:18:50;22.10;99.90
44647;DHT22;56315;-33.902;151.160;2022-12-18T04:21:16;22.30;99.90
44647;DHT22;56315;-33.902;151.160;2022-12-18T04:23:43;22.50;99.90
44647;DHT22;56315;-33.902;151.160;2022-12-18T04:26:10;22.60;99.90
44647;DHT22;56315;-33.902;151.160;2022-12-18T04:28:36;22.50;99.90
44647;DHT22;56315;-33.902;151.160;2022-12-18T04:31:03;22.10;99.90
44647;DHT22;56315;-33.902;151.160;2022-12-18T04:33:30;21.90;99.90
44647;DHT22;56315;-33.902;151.160;2022-12-18T04:35:57;21.70;99.90
44647;DHT22;56315;-33.902;151.160;2022-12-18T04:38:23;21.60;99.90
44647;DHT22;56315;-33.902;151.160;2022-12-18T04:40:50;21.40;99.90
44647;DHT22;56315;-33.902;151.160;2022-12-18T04:43:17;21.20;99.90
44647;DHT22;56315;-33.902;151.160;2022-12-18T04:45:43;21.20;99.90
44647;DHT22;56315;-33.902;151.160;2022-12-18T04:48:10;21.10;99.90
44647;DHT22;56315;-33.902;151.160;2022-12-18T04:50:36;21.00;99.90
44647;DHT22;56315;-33.902;151.160;2022-12-18T04:53:03;20.80;99.90
44647;DHT22;56315;-33.902;151.160;2022-12-18T04:55:30;20.80;99.90
44647;DHT22;56315;-33.902;151.160;2022-12-18T04:57:56;21.00;99.90
44647;DHT22;56315;-33.902;151.160;2022-12-18T05:00:23;21.10;99.90
44647;DHT22;56315;-33.902;151.160;2022-12-18T05:02:50;21.00;99.90
44647;DHT22;56315;-33.902;151.160;2022-12-18T05:05:16;20.90;99.90
44647;DHT22;56315;-33.902;151.160;2022-12-18T05:07:43;20.90;99.90
44647;DHT22;56315;-33.902;151.160;2022-12-18T05:10:10;20.80;99.90
44647;DHT22;56315;-33.902;151.160;2022-12-18T05:12:36;20.70;99.90
44647;DHT22;56315;-33.902;151.160;2022-12-18T05:15:23;20.70;99.90
44647;DHT22;56315;-33.902;151.160;2022-12-18T05:17:50;20.60;99.90
44647;DHT22;56315;-33.902;151.160;2022-12-18T05:20:17;20.60;99.90
44647;DHT22;56315;-33.902;151.160;2022-12-18T05:22:44;20.50;99.90
44647;DHT22;56315;-33.902;151.160;2022-12-18T05:25:10;20.60;99.90
44647;DHT22;56315;-33.902;151.160;2022-12-18T05:27:37;20.70;99.90
44647;DHT22;56315;-33.902;151.160;2022-12-18T05:30:04;20.50;99.90
44647;DHT22;56315;-33.902;151.160;2022-12-18T05:32:30;20.40;99.90
44647;DHT22;56315;-33.902;151.160;2022-12-18T05:34:57;20.30;99.90
44647;DHT22;56315;-33.902;151.160;2022-12-18T05:37:24;20.30;99.90
44647;DHT22;56315;-33.902;151.160;2022-12-18T05:39:50;20.30;99.90
44647;DHT22;56315;-33.902;151.160;2022-12-18T05:42:17;20.30;99.90
44647;DHT22;56315;-33.902;151.160;2022-12-18T05:44:44;20.30;99.90
44647;DHT22;56315;-33.902;151.160;2022-12-18T05:47:10;20.10;99.90
44647;DHT22;56315;-33.902;151.160;2022-12-18T05:49:37;20.00;99.90
44647;DHT22;56315;-33.902;151.160;2022-12-18T05:52:03;20.00;99.90
44647;DHT22;56315;-33.902;151.160;2022-12-18T05:54:30;19.90;99.90
44647;DHT22;56315;-33.902;151.160;2022-12-18T05:56:57;19.90;99.90
44647;DHT22;56315;-33.902;151.160;2022-12-18T05:59:24;19.90;99.90
44647;DHT22;56315;-33.902;151.160;2022-12-18T06:01:50;19.90;99.90
44647;DHT22;56315;-33.902;151.160;2022-12-18T06:04:17;19.80;99.90
44647;DHT22;56315;-33.902;151.160;2022-12-18T06:06:44;19.70;99.90
44647;DHT22;56315;-33.902;151.160;2022-12-18T06:09:10;19.70;99.90
44647;DHT22;56315;-33.902;151.160;2022-12-18T06:11:38;19.60;99.90
44647;DHT22;56315;-33.902;151.160;2022-12-18T06:14:05;19.70;99.90
44647;DHT22;56315;-33.902;151.160;2022-12-18T06:16:32;19.70;99.90
44647;DHT22;56315;-33.902;151.160;2022-12-18T06:18:59;19.70;99.90
44647;DHT22;56315;-33.902;151.160;2022-12-18T06:21:26;19.70;99.90
44647;DHT22;56315;-33.902;151.160;2022-12-18T06:23:53;19.60;99.90
44647;DHT22;56315;-33.902;151.160;2022-12-18T06:26:20;19.50;99.90
44647;DHT22;56315;-33.902;151.160;2022-12-18T06:28:46;19.50;99.90
44647;DHT22;56315;-33.902;151.160;2022-12-18T06:31:13;19.40;99.90
44647;DHT22;56315;-33.902;151.160;2022-12-18T06:33:40;19.50;99.90
44647;DHT22;56315;-33.902;151.160;2022-12-18T06:36:10;19.50;99.90
44647;DHT22;56315;-33.902;151.160;2022-12-18T06:38:38;19.40;99.90
44647;DHT22;56315;-33.902;151.160;2022-12-18T06:41:08;19.40;99.90
44647;DHT22;56315;-33.902;151.160;2022-12-18T06:43:35;19.30;99.90
44647;DHT22;56315;-33.902;151.160;2022-12-18T06:46:03;19.30;99.90
44647;DHT22;56315;-33.902;151.160;2022-12-18T06:48:30;19.30;99.90
44647;DHT22;56315;-33.902;151.160;2022-12-18T06:50:57;19.10;99.90
44647;DHT22;56315;-33.902;151.160;2022-12-18T06:53:23;19.00;99.90
44647;DHT22;56315;-33.902;151.160;2022-12-18T06:55:50;19.00;99.90
44647;DHT22;56315;-33.902;151.160;2022-12-18T06:58:16;19.00;99.90
44647;DHT22;56315;-33.902;151.160;2022-12-18T07:00:43;19.00;99.90
44647;DHT22;56315;-33.902;151.160;2022-12-18T07:03:10;19.00;99.90
44647;DHT22;56315;-33.902;151.160;2022-12-18T07:05:40;18.90;99.90
44647;DHT22;56315;-33.902;151.160;2022-12-18T07:08:07;19.00;99.90
44647;DHT22;56315;-33.902;151.160;2022-12-18T07:10:33;19.00;99.90
44647;DHT22;56315;-33.902;151.160;2022-12-18T07:13:00;19.00;99.90
44647;DHT22;56315;-33.902;151.160;2022-12-18T07:15:26;19.10;99.90
44647;DHT22;56315;-33.902;151.160;2022-12-18T07:17:53;19.10;99.90
44647;DHT22;56315;-33.902;151.160;2022-12-18T07:20:20;19.10;99.90
44647;DHT22;56315;-33.902;151.160;2022-12-18T07:22:46;19.10;99.90
44647;DHT22;56315;-33.902;151.160;2022-12-18T07:25:13;18.90;99.90
44647;DHT22;56315;-33.902;151.160;2022-12-18T07:27:40;18.70;99.90
44647;DHT22;56315;-33.902;151.160;2022-12-18T07:30:06;18.60;99.90
44647;DHT22;56315;-33.902;151.160;2022-12-18T07:32:33;18.60;99.90
44647;DHT22;56315;-33.902;151.160;2022-12-18T07:35:00;18.50;99.90
44647;DHT22;56315;-33.902;151.160;2022-12-18T07:37:27;18.50;99.90
44647;DHT22;56315;-33.902;151.160;2022-12-18T07:39:53;18.60;99.90
44647;DHT22;56315;-33.902;151.160;2022-12-18T07:42:20;18.60;99.90
44647;DHT22;56315;-33.902;151.160;2022-12-18T07:44:59;18.70;99.90
44647;DHT22;56315;-33.902;151.160;2022-12-18T07:47:26;18.70;99.90
44647;DHT22;56315;-33.902;151.160;2022-12-18T07:49:53;18.70;99.90
44647;DHT22;56315;-33.902;151.160;2022-12-18T07:52:20;18.70;99.90
44647;DHT22;56315;-33.902;151.160;2022-12-18T07:54:47;18.70;99.90
44647;DHT22;56315;-33.902;151.160;2022-12-18T07:57:16;18.60;99.90
44647;DHT22;56315;-33.902;151.160;2022-12-18T07:59:43;18.50;99.90
44647;DHT22;56315;-33.902;151.160;2022-12-18T08:02:09;18.40;99.90
44647;DHT22;56315;-33.902;151.160;2022-12-18T08:04:36;18.40;99.90
44647;DHT22;56315;-33.902;151.160;2022-12-18T08:07:04;18.40;99.90
44647;DHT22;56315;-33.902;151.160;2022-12-18T08:09:33;18.30;99.90
44647;DHT22;56315;-33.902;151.160;2022-12-18T08:12:00;18.20;99.90
44647;DHT22;56315;-33.902;151.160;2022-12-18T08:14:27;18.20;99.90
44647;DHT22;56315;-33.902;151.160;2022-12-18T08:16:53;18.20;99.90
44647;DHT22;56315;-33.902;151.160;2022-12-18T08:19:21;18.10;99.90
44647;DHT22;56315;-33.902;151.160;2022-12-18T08:21:48;18.10;99.90
44647;DHT22;56315;-33.902;151.160;2022-12-18T08:24:16;18.00;99.90
44647;DHT22;56315;-33.902;151.160;2022-12-18T08:26:43;17.90;99.90
44647;DHT22;56315;-33.902;151.160;2022-12-18T08:29:10;17.90;99.90
44647;DHT22;56315;-33.902;151.160;2022-12-18T08:31:36;17.90;99.90
44647;DHT22;56315;-33.902;151.160;2022-12-18T08:34:03;17.90;99.90
44647;DHT22;56315;-33.902;151.160;2022-12-18T08:36:30;17.80;99.90
44647;DHT22;56315;-33.902;151.160;2022-12-18T08:39:00;17.80;99.90
44647;DHT22;56315;-33.902;151.160;2022-12-18T08:41:27;17.80;99.90
44647;DHT22;56315;-33.902;151.160;2022-12-18T08:43:54;17.80;99.90
44647;DHT22;56315;-33.902;151.160;2022-12-18T08:46:39;17.80;99.90
44647;DHT22;56315;-33.902;151.160;2022-12-18T08:49:06;17.80;99.90
44647;DHT22;56315;-33.902;151.160;2022-12-18T08:51:33;17.70;99.90
44647;DHT22;56315;-33.902;151.160;2022-12-18T08:54:00;17.70;99.90
44647;DHT22;56315;-33.902;151.160;2022-12-18T08:56:27;17.50;99.90
44647;DHT22;56315;-33.902;151.160;2022-12-18T08:58:54;17.20;99.90
44647;DHT22;56315;-33.902;151.160;2022-12-18T09:01:21;17.00;99.90
44647;DHT22;56315;-33.902;151.160;2022-12-18T09:03:48;16.80;99.90
44647;DHT22;56315;-33.902;151.160;2022-12-18T09:06:20;16.60;99.90
44647;DHT22;56315;-33.902;151.160;2022-12-18T09:08:47;16.50;99.90
44647;DHT22;56315;-33.902;151.160;2022-12-18T09:11:23;16.40;99.90
44647;DHT22;56315;-33.902;151.160;2022-12-18T09:13:55;16.30;99.90
44647;DHT22;56315;-33.902;151.160;2022-12-18T09:16:22;16.20;99.90
44647;DHT22;56315;-33.902;151.160;2022-12-18T09:18:49;16.20;99.90
44647;DHT22;56315;-33.902;151.160;2022-12-18T09:21:17;16.20;99.90
44647;DHT22;56315;-33.902;151.160;2022-12-18T09:23:43;16.20;99.90
44647;DHT22;56315;-33.902;151.160;2022-12-18T09:26:10;16.20;99.90
44647;DHT22;56315;-33.902;151.160;2022-12-18T09:28:37;16.20;99.90
44647;DHT22;56315;-33.902;151.160;2022-12-18T09:31:05;16.20;99.90
44647;DHT22;56315;-33.902;151.160;2022-12-18T09:33:33;16.20;99.90
44647;DHT22;56315;-33.902;151.160;2022-12-18T09:36:01;16.20;99.90
44647;DHT22;56315;-33.902;151.160;2022-12-18T09:38:28;16.20;99.90
44647;DHT22;56315;-33.902;151.160;2022-12-18T09:40:56;16.20;99.90
44647;DHT22;56315;-33.902;151.160;2022-12-18T09:43:26;16.10;99.90
44647;DHT22;56315;-33.902;151.160;2022-12-18T09:45:58;16.20;99.90
44647;DHT22;56315;-33.902;151.160;2022-12-18T09:48:38;16.20;99.90
44647;DHT22;56315;-33.902;151.160;2022-12-18T09:51:26;16.20;99.90
44647;DHT22;56315;-33.902;151.160;2022-12-18T09:53:55;16.30;99.90
44647;DHT22;56315;-33.902;151.160;2022-12-18T09:56:23;16.40;99.90
44647;DHT22;56315;-33.902;151.160;2022-12-18T09:58:57;16.40;99.90
44647;DHT22;56315;-33.902;151.160;2022-12-18T10:01:25;16.60;99.90
44647;DHT22;56315;-33.902;151.160;2022-12-18T10:03:52;16.60;99.90
44647;DHT22;56315;-33.902;151.160;2022-12-18T10:13:55;16.70;99.90
44647;DHT22;56315;-33.902;151.160;2022-12-18T10:16:45;16.70;99.90
44647;DHT22;56315;-33.902;151.160;2022-12-18T10:19:20;16.70;99.90
44647;DHT22;56315;-33.902;151.160;2022-12-18T10:21:56;16.70;99.90
44647;DHT22;56315;-33.902;151.160;2022-12-18T10:26:55;16.80;99.90
44647;DHT22;56315;-33.902;151.160;2022-12-18T10:29:26;16.80;99.90
44647;DHT22;56315;-33.902;151.160;2022-12-18T10:31:53;16.80;99.90
44647;DHT22;56315;-33.902;151.160;2022-12-18T10:34:19;16.90;99.90
44647;DHT22;56315;-33.902;151.160;2022-12-18T10:36:47;16.90;99.90
44647;DHT22;56315;-33.902;151.160;2022-12-18T10:39:15;17.00;99.90
44647;DHT22;56315;-33.902;151.160;2022-12-18T10:41:42;17.00;99.90
44647;DHT22;56315;-33.902;151.160;2022-12-18T10:44:19;17.00;99.90
44647;DHT22;56315;-33.902;151.160;2022-12-18T10:46:47;17.00;99.90
44647;DHT22;56315;-33.902;151.160;2022-12-18T10:49:22;16.80;99.90
44647;DHT22;56315;-33.902;151.160;2022-12-18T10:51:49;16.60;99.90
44647;DHT22;56315;-33.902;151.160;2022-12-18T10:54:17;16.30;99.90
44647;DHT22;56315;-33.902;151.160;2022-12-18T10:56:44;16.20;99.90
44647;DHT22;56315;-33.902;151.160;2022-12-18T10:59:12;16.00;99.90
44647;DHT22;56315;-33.902;151.160;2022-12-18T11:01:46;15.90;99.90
44647;DHT22;56315;-33.902;151.160;2022-12-18T11:04:16;15.80;99.90
44647;DHT22;56315;-33.902;151.160;2022-12-18T11:06:59;15.80;99.90
44647;DHT22;56315;-33.902;151.160;2022-12-18T11:09:30;15.80;99.90
44647;DHT22;56315;-33.902;151.160;2022-12-18T11:12:01;15.80;99.90
44647;DHT22;56315;-33.902;151.160;2022-12-18T11:15:01;15.80;99.90
44647;DHT22;56315;-33.902;151.160;2022-12-18T11:17:28;15.80;99.90
44647;DHT22;56315;-33.902;151.160;2022-12-18T11:19:59;15.80;99.90
44647;DHT22;56315;-33.902;151.160;2022-12-18T11:22:27;15.80;99.90
44647;DHT22;56315;-33.902;151.160;2022-12-18T11:27:39;15.80;99.90
44647;DHT22;56315;-33.902;151.160;2022-12-18T11:30:07;15.80;99.90
44647;DHT22;56315;-33.902;151.160;2022-12-18T11:32:37;15.70;99.90
44647;DHT22;56315;-33.902;151.160;2022-12-18T11:35:15;15.70;99.90
44647;DHT22;56315;-33.902;151.160;2022-12-18T11:37:43;15.60;99.90
44647;DHT22;56315;-33.902;151.160;2022-12-18T11:40:19;15.60;99.90
44647;DHT22;56315;-33.902;151.160;2022-12-18T11:43:29;15.60;99.90
44647;DHT22;56315;-33.902;151.160;2022-12-18T11:45:53;15.60;99.90
44647;DHT22;56315;-33.902;151.160;2022-12-18T11:48:25;15.60;99.90
44647;DHT22;56315;-33.902;151.160;2022-12-18T11:50:53;15.70;99.90
44647;DHT22;56315;-33.902;151.160;2022-12-18T11:53:20;15.70;99.90
44647;DHT22;56315;-33.902;151.160;2022-12-18T11:55:49;15.70;99.90
44647;DHT22;56315;-33.902;151.160;2022-12-18T12:00:49;15.60;99.90
44647;DHT22;56315;-33.902;151.160;2022-12-18T12:06:02;15.70;99.90
44647;DHT22;56315;-33.902;151.160;2022-12-18T12:11:07;15.70;99.90
44647;DHT22;56315;-33.902;151.160;2022-12-18T12:16:10;15.70;99.90
44647;DHT22;56315;-33.902;151.160;2022-12-18T12:18:58;15.80;99.90
44647;DHT22;56315;-33.902;151.160;2022-12-18T12:21:29;15.80;99.90
44647;DHT22;56315;-33.902;151.160;2022-12-18T12:29:27;15.70;99.90
44647;DHT22;56315;-33.902;151.160;2022-12-18T12:32:00;15.70;99.90
44647;DHT22;56315;-33.902;151.160;2022-12-18T12:39:38;15.70;99.90
44647;DHT22;56315;-33.902;151.160;2022-12-18T12:42:11;15.70;99.90
44647;DHT22;56315;-33.902;151.160;2022-12-18T12:44:57;15.70;99.90
44647;DHT22;56315;-33.902;151.160;2022-12-18T12:47:30;15.70;99.90
44647;DHT22;56315;-33.902;151.160;2022-12-18T12:50:02;15.80;99.90
44647;DHT22;56315;-33.902;151.160;2022-12-18T12:54:56;15.70;99.90
44647;DHT22;56315;-33.902;151.160;2022-12-18T13:00:09;15.80;99.90
44647;DHT22;56315;-33.902;151.160;2022-12-18T13:08:34;15.80;99.90
44647;DHT22;56315;-33.902;151.160;2022-12-18T13:10:58;15.80;99.90
44647;DHT22;56315;-33.902;151.160;2022-12-18T13:13:50;15.80;99.90
44647;DHT22;56315;-33.902;151.160;2022-12-18T13:16:20;15.80;99.90
44647;DHT22;56315;-33.902;151.160;2022-12-18T13:18:51;15.80;99.90
44647;DHT22;56315;-33.902;151.160;2022-12-18T13:21:22;15.90;99.90
44647;DHT22;56315;-33.902;151.160;2022-12-18T13:23:49;15.90;99.90
44647;DHT22;56315;-33.902;151.160;2022-12-18T13:31:10;16.10;99.90
44647;DHT22;56315;-33.902;151.160;2022-12-18T13:33:43;16.10;99.90
44647;DHT22;56315;-33.902;151.160;2022-12-18T13:38:41;16.30;99.90
44647;DHT22;56315;-33.902;151.160;2022-12-18T13:51:19;16.40;99.90
44647;DHT22;56315;-33.902;151.160;2022-12-18T13:53:48;16.40;99.90
44647;DHT22;56315;-33.902;151.160;2022-12-18T13:56:23;16.40;99.90
44647;DHT22;56315;-33.902;151.160;2022-12-18T14:01:34;16.30;99.90
44647;DHT22;56315;-33.902;151.160;2022-12-18T14:04:11;16.30;99.90
44647;DHT22;56315;-33.902;151.160;2022-12-18T14:06:38;16.20;99.90
44647;DHT22;56315;-33.902;151.160;2022-12-18T14:09:05;16.20;99.90
44647;DHT22;56315;-33.902;151.160;2022-12-18T14:11:32;16.20;99.90
44647;DHT22;56315;-33.902;151.160;2022-12-18T14:13:58;16.20;99.90
44647;DHT22;56315;-33.902;151.160;2022-12-18T14:16:25;16.20;99.90
44647;DHT22;56315;-33.902;151.160;2022-12-18T14:18:52;16.20;99.90
44647;DHT22;56315;-33.902;151.160;2022-12-18T14:21:27;16.10;99.90
44647;DHT22;56315;-33.902;151.160;2022-12-18T14:24:05;16.10;99.90
44647;DHT22;56315;-33.902;151.160;2022-12-18T14:26:32;16.00;99.90
44647;DHT22;56315;-33.902;151.160;2022-12-18T14:29:00;15.90;99.90
44647;DHT22;56315;-33.902;151.160;2022-12-18T14:31:28;15.90;99.90
44647;DHT22;56315;-33.902;151.160;2022-12-18T14:33:55;15.90;99.90
44647;DHT22;56315;-33.902;151.160;2022-12-18T14:36:23;15.90;99.90
44647;DHT22;56315;-33.902;151.160;2022-12-18T14:38:53;15.90;99.90
44647;DHT22;56315;-33.902;151.160;2022-12-18T14:41:20;15.90;99.90
44647;DHT22;56315;-33.902;151.160;2022-12-18T14:43:48;15.90;99.90
44647;DHT22;56315;-33.902;151.160;2022-12-18T14:46:25;15.90;99.90
44647;DHT22;56315;-33.902;151.160;2022-12-18T14:48:53;15.90;99.90
44647;DHT22;56315;-33.902;151.160;2022-12-18T14:51:24;15.90;99.90
44647;DHT22;56315;-33.902;151.160;2022-12-18T14:53:55;15.90;99.90
44647;DHT22;56315;-33.902;151.160;2022-12-18T14:56:26;15.90;99.90
44647;DHT22;56315;-33.902;151.160;2022-12-18T14:58:54;15.90;99.90
44647;DHT22;56315;-33.902;151.160;2022-12-18T15:01:32;15.90;99.90
44647;DHT22;56315;-33.902;151.160;2022-12-18T15:03:59;15.90;99.90
44647;DHT22;56315;-33.902;151.160;2022-12-18T15:06:30;15.90;99.90
44647;DHT22;56315;-33.902;151.160;2022-12-18T15:09:03;15.90;99.90
44647;DHT22;56315;-33.902;151.160;2022-12-18T15:11:34;16.00;99.90
44647;DHT22;56315;-33.902;151.160;2022-12-18T15:14:21;16.10;99.90
44647;DHT22;56315;-33.902;151.160;2022-12-18T15:16:53;16.20;99.90
44647;DHT22;56315;-33.902;151.160;2022-12-18T15:19:21;16.20;99.90
44647;DHT22;56315;-33.902;151.160;2022-12-18T15:21:48;16.30;99.90
44647;DHT22;56315;-33.902;151.160;2022-12-18T15:24:18;16.40;99.90
44647;DHT22;56315;-33.902;151.160;2022-12-18T15:26:46;16.50;99.90
44647;DHT22;56315;-33.902;151.160;2022-12-18T15:29:22;16.60;99.90
44647;DHT22;56315;-33.902;151.160;2022-12-18T15:31:59;16.60;99.90
44647;DHT22;56315;-33.902;151.160;2022-12-18T15:34:25;16.60;99.90
44647;DHT22;56315;-33.902;151.160;2022-12-18T15:36:53;16.60;99.90
44647;DHT22;56315;-33.902;151.160;2022-12-18T15:39:19;16.50;99.90
44647;DHT22;56315;-33.902;151.160;2022-12-18T15:41:46;16.50;99.90
44647;DHT22;56315;-33.902;151.160;2022-12-18T15:44:31;16.60;99.90
44647;DHT22;56315;-33.902;151.160;2022-12-18T15:46:58;16.50;99.90
44647;DHT22;56315;-33.902;151.160;2022-12-18T15:49:24;16.50;99.90
44647;DHT22;56315;-33.902;151.160;2022-12-18T15:51:52;16.60;99.90
44647;DHT22;56315;-33.902;151.160;2022-12-18T15:54:19;16.60;99.90
44647;DHT22;56315;-33.902;151.160;2022-12-18T15:57:08;16.50;99.90
44647;DHT22;56315;-33.902;151.160;2022-12-18T15:59:51;16.60;99.90
44647;DHT22;56315;-33.902;151.160;2022-12-18T16:02:19;16.50;99.90
44647;DHT22;56315;-33.902;151.160;2022-12-18T16:04:46;16.50;99.90
44647;DHT22;56315;-33.902;151.160;2022-12-18T16:07:13;16.50;99.90
44647;DHT22;56315;-33.902;151.160;2022-12-18T16:09:39;16.50;99.90
44647;DHT22;56315;-33.902;151.160;2022-12-18T16:12:06;16.50;99.90
44647;DHT22;56315;-33.902;151.160;2022-12-18T16:14:33;16.50;99.90
44647;DHT22;56315;-33.902;151.160;2022-12-18T16:17:00;16.50;99.90
44647;DHT22;56315;-33.902;151.160;2022-12-18T16:19:28;16.50;99.90
44647;DHT22;56315;-33.902;151.160;2022-12-18T16:21:55;16.50;99.90
44647;DHT22;56315;-33.902;151.160;2022-12-18T16:24:24;16.40;99.90
44647;DHT22;56315;-33.902;151.160;2022-12-18T16:26:51;16.40;99.90
44647;DHT22;56315;-33.902;151.160;2022-12-18T16:29:19;16.40;99.90
44647;DHT22;56315;-33.902;151.160;2022-12-18T16:31:50;16.40;99.90
44647;DHT22;56315;-33.902;151.160;2022-12-18T16:36:44;16.30;99.90
44647;DHT22;56315;-33.902;151.160;2022-12-18T16:39:11;16.30;99.90
44647;DHT22;56315;-33.902;151.160;2022-12-18T16:41:38;16.30;99.90
44647;DHT22;56315;-33.902;151.160;2022-12-18T16:44:04;16.40;99.90
44647;DHT22;56315;-33.902;151.160;2022-12-18T16:46:31;16.40;99.90
44647;DHT22;56315;-33.902;151.160;2022-12-18T16:48:58;16.40;99.90
44647;DHT22;56315;-33.902;151.160;2022-12-18T16:51:25;16.40;99.90
44647;DHT22;56315;-33.902;151.160;2022-12-18T16:53:55;16.40;99.90
44647;DHT22;56315;-33.902;151.160;2022-12-18T16:56:22;16.40;99.90
44647;DHT22;56315;-33.902;151.160;2022-12-18T16:58:55;16.40;99.90
44647;DHT22;56315;-33.902;151.160;2022-12-18T17:01:22;16.40;99.90
44647;DHT22;56315;-33.902;151.160;2022-12-18T17:03:58;16.40;99.90
44647;DHT22;56315;-33.902;151.160;2022-12-18T17:06:25;16.40;99.90
44647;DHT22;56315;-33.902;151.160;2022-12-18T17:08:56;16.30;99.90
44647;DHT22;56315;-33.902;151.160;2022-12-18T17:11:23;16.30;99.90
44647;DHT22;56315;-33.902;151.160;2022-12-18T17:13:50;16.40;99.90
44647;DHT22;56315;-33.902;151.160;2022-12-18T17:16:17;16.20;99.90